LOT3MG LIPE-EPWA
Flight info
| Callsign | LOT3MG |
|---|---|
| Flight time | 1h 30m |
| Altitude | 35000 |
| Route | LUMAV M859 CHI/N0395F180 M859 TULIK P125 ROSKA M859 BARPI/N0458F350 DCT LAPNA DCT GOLVA DCT ABLOM DCT MEBAN DCT ORTEB/N0455F360 DCT KONZI DCT LOGDA |
| Aircraft | B38M/M-SDE1FGHILORVWXY/HB1 |
Departure
| Time | 2026-05-07 17:02 |
|---|---|
| Airport | Bologna Guglielmo Marconi Airport (LIPE) |
Arrival
| Time | 2026-05-07 18:32 |
|---|---|
| Airport | Warsaw Chopin Airport (EPWA) |
| Time | Latitude | Longitude | Altitude | Speed | Heading |
|---|---|---|---|---|---|
| 2026-05-07 16:31 | 44.53069 | 11.29319 | 129 ft | 0 kts | 206° |
| 2026-05-07 16:49 | 44.53085 | 11.29331 | 124 ft | 4 kts | 214° |
| 2026-05-07 16:49 | 44.53104 | 11.29356 | 127 ft | 4 kts | 239° |
| 2026-05-07 16:49 | 44.53109 | 11.29387 | 126 ft | 4 kts | 290° |
| 2026-05-07 16:49 | 44.53107 | 11.29394 | 127 ft | 1 kts | 296° |
| 2026-05-07 16:57 | 44.53108 | 11.29391 | 129 ft | 2 kts | 296° |
| 2026-05-07 16:57 | 44.53125 | 11.29342 | 127 ft | 11 kts | 296° |
| 2026-05-07 16:57 | 44.53177 | 11.29199 | 128 ft | 22 kts | 297° |
| 2026-05-07 16:58 | 44.53252 | 11.28995 | 126 ft | 25 kts | 297° |
| 2026-05-07 16:58 | 44.53331 | 11.28772 | 126 ft | 26 kts | 296° |
| 2026-05-07 16:58 | 44.53407 | 11.28555 | 126 ft | 23 kts | 296° |
| 2026-05-07 16:58 | 44.53462 | 11.28405 | 128 ft | 15 kts | 298° |
| 2026-05-07 16:59 | 44.53529 | 11.28308 | 128 ft | 14 kts | 343° |
| 2026-05-07 16:59 | 44.53589 | 11.28197 | 128 ft | 16 kts | 297° |
| 2026-05-07 16:59 | 44.53640 | 11.28052 | 125 ft | 17 kts | 297° |
| 2026-05-07 16:59 | 44.53698 | 11.27892 | 126 ft | 19 kts | 297° |
| 2026-05-07 17:00 | 44.53764 | 11.27715 | 124 ft | 21 kts | 297° |
| 2026-05-07 17:00 | 44.53841 | 11.27566 | 129 ft | 16 kts | 347° |
| 2026-05-07 17:00 | 44.53943 | 11.27618 | 124 ft | 15 kts | 47° |
| 2026-05-07 17:00 | 44.53956 | 11.27722 | 138 ft | 0 kts | 114° |
| 2026-05-07 17:01 | 44.53955 | 11.27723 | 137 ft | 1 kts | 114° |
| 2026-05-07 17:01 | 44.53870 | 11.27961 | 128 ft | 66 kts | 117° |
| 2026-05-07 17:01 | 44.53546 | 11.28859 | 127 ft | 139 kts | 117° |
| 2026-05-07 17:01 | 44.53035 | 11.30275 | 399 ft | 177 kts | 116° |
| 2026-05-07 17:02 | 44.52467 | 11.31930 | 1084 ft | 200 kts | 112° |
| 2026-05-07 17:02 | 44.52508 | 11.33972 | 1806 ft | 233 kts | 68° |
| 2026-05-07 17:02 | 44.53690 | 11.35772 | 2099 ft | 278 kts | 28° |
| 2026-05-07 17:02 | 44.55485 | 11.36849 | 3127 ft | 275 kts | 18° |
| 2026-05-07 17:03 | 44.57132 | 11.37711 | 4359 ft | 240 kts | 20° |
| 2026-05-07 17:03 | 44.58694 | 11.38680 | 5044 ft | 255 kts | 21° |
| 2026-05-07 17:03 | 44.60377 | 11.39759 | 5639 ft | 276 kts | 22° |
| 2026-05-07 17:03 | 44.62161 | 11.40888 | 6246 ft | 286 kts | 22° |
| 2026-05-07 17:04 | 44.63999 | 11.42052 | 6834 ft | 293 kts | 22° |
| 2026-05-07 17:04 | 44.65850 | 11.43304 | 7437 ft | 297 kts | 32° |
| 2026-05-07 17:04 | 44.67455 | 11.45106 | 7984 ft | 302 kts | 40° |
| 2026-05-07 17:04 | 44.69060 | 11.47021 | 8495 ft | 304 kts | 40° |
| 2026-05-07 17:05 | 44.70686 | 11.48948 | 9022 ft | 307 kts | 40° |
| 2026-05-07 17:05 | 44.72326 | 11.50884 | 9563 ft | 309 kts | 40° |
| 2026-05-07 17:05 | 44.73981 | 11.52836 | 10084 ft | 312 kts | 40° |
| 2026-05-07 17:05 | 44.75682 | 11.54840 | 10556 ft | 328 kts | 40° |
| 2026-05-07 17:06 | 44.77484 | 11.56964 | 11031 ft | 348 kts | 40° |
| 2026-05-07 17:06 | 44.79391 | 11.59213 | 11480 ft | 367 kts | 40° |
| 2026-05-07 17:06 | 44.81278 | 11.61727 | 12022 ft | 380 kts | 53° |
| 2026-05-07 17:06 | 44.82676 | 11.64920 | 12681 ft | 387 kts | 62° |
| 2026-05-07 17:07 | 44.84002 | 11.68240 | 13538 ft | 390 kts | 62° |
| 2026-05-07 17:07 | 44.85332 | 11.71613 | 14215 ft | 397 kts | 62° |
| 2026-05-07 17:07 | 44.86671 | 11.75033 | 14885 ft | 401 kts | 62° |
| 2026-05-07 17:07 | 44.88026 | 11.78509 | 15529 ft | 407 kts | 62° |
| 2026-05-07 17:08 | 44.89391 | 11.82022 | 16176 ft | 412 kts | 62° |
| 2026-05-07 17:08 | 44.90775 | 11.85586 | 16830 ft | 416 kts | 62° |
| 2026-05-07 17:08 | 44.92173 | 11.89194 | 17460 ft | 421 kts | 62° |
| 2026-05-07 17:08 | 44.93580 | 11.92840 | 18098 ft | 425 kts | 62° |
| 2026-05-07 17:09 | 44.95004 | 11.96537 | 18639 ft | 430 kts | 62° |
| 2026-05-07 17:09 | 44.96436 | 12.00256 | 19201 ft | 433 kts | 62° |
| 2026-05-07 17:09 | 44.97880 | 12.04015 | 19758 ft | 437 kts | 62° |
| 2026-05-07 17:09 | 44.99336 | 12.07806 | 20284 ft | 441 kts | 62° |
| 2026-05-07 17:10 | 45.00799 | 12.11623 | 20819 ft | 444 kts | 62° |
| 2026-05-07 17:10 | 45.02276 | 12.15482 | 21365 ft | 447 kts | 62° |
| 2026-05-07 17:10 | 45.03762 | 12.19371 | 21892 ft | 451 kts | 62° |
| 2026-05-07 17:10 | 45.05258 | 12.23287 | 22395 ft | 455 kts | 62° |
| 2026-05-07 17:11 | 45.06772 | 12.27230 | 22918 ft | 458 kts | 60° |
| 2026-05-07 17:11 | 45.08397 | 12.31058 | 23412 ft | 461 kts | 59° |
| 2026-05-07 17:11 | 45.10053 | 12.34959 | 23850 ft | 465 kts | 59° |
| 2026-05-07 17:11 | 45.11715 | 12.38910 | 24251 ft | 468 kts | 59° |
| 2026-05-07 17:12 | 45.13383 | 12.42887 | 24639 ft | 472 kts | 59° |
| 2026-05-07 17:12 | 45.15064 | 12.46900 | 25014 ft | 475 kts | 59° |
| 2026-05-07 17:12 | 45.16756 | 12.50946 | 25394 ft | 479 kts | 59° |
| 2026-05-07 17:12 | 45.18458 | 12.55023 | 25758 ft | 483 kts | 59° |
| 2026-05-07 17:13 | 45.20174 | 12.59138 | 26135 ft | 486 kts | 59° |
| 2026-05-07 17:13 | 45.21897 | 12.63276 | 26502 ft | 489 kts | 59° |
| 2026-05-07 17:13 | 45.23632 | 12.67450 | 26857 ft | 493 kts | 59° |
| 2026-05-07 17:13 | 45.25376 | 12.71651 | 27204 ft | 496 kts | 59° |
| 2026-05-07 17:14 | 45.27133 | 12.75889 | 27564 ft | 499 kts | 59° |
| 2026-05-07 17:14 | 45.28910 | 12.80157 | 27893 ft | 503 kts | 59° |
| 2026-05-07 17:14 | 45.30696 | 12.84441 | 28229 ft | 506 kts | 59° |
| 2026-05-07 17:14 | 45.32497 | 12.88751 | 28555 ft | 509 kts | 59° |
| 2026-05-07 17:15 | 45.34308 | 12.93097 | 28875 ft | 513 kts | 59° |
| 2026-05-07 17:15 | 45.36128 | 12.97470 | 29186 ft | 516 kts | 59° |
| 2026-05-07 17:15 | 45.37961 | 13.01881 | 29499 ft | 519 kts | 59° |
| 2026-05-07 17:15 | 45.39800 | 13.06312 | 29810 ft | 522 kts | 59° |
| 2026-05-07 17:16 | 45.41652 | 13.10782 | 30117 ft | 525 kts | 59° |
| 2026-05-07 17:16 | 45.43507 | 13.15269 | 30391 ft | 527 kts | 59° |
| 2026-05-07 17:16 | 45.44742 | 13.18258 | 30597 ft | 528 kts | 59° |
| 2026-05-07 17:16 | 45.46600 | 13.22763 | 30953 ft | 528 kts | 59° |
| 2026-05-07 17:17 | 45.48455 | 13.27272 | 31373 ft | 526 kts | 59° |
| 2026-05-07 17:17 | 45.50292 | 13.31775 | 31803 ft | 525 kts | 59° |
| 2026-05-07 17:17 | 45.52123 | 13.36265 | 32219 ft | 523 kts | 59° |
| 2026-05-07 17:17 | 45.53944 | 13.40743 | 32637 ft | 522 kts | 60° |
| 2026-05-07 17:18 | 45.55747 | 13.45224 | 33055 ft | 520 kts | 60° |
| 2026-05-07 17:18 | 45.57542 | 13.49692 | 33477 ft | 518 kts | 60° |
| 2026-05-07 17:18 | 45.59471 | 13.54015 | 33881 ft | 516 kts | 54° |
| 2026-05-07 17:18 | 45.61510 | 13.58217 | 34246 ft | 514 kts | 54° |
| 2026-05-07 17:19 | 45.63556 | 13.62403 | 34589 ft | 512 kts | 54° |
| 2026-05-07 17:19 | 45.65595 | 13.66565 | 34930 ft | 511 kts | 54° |
| 2026-05-07 17:19 | 45.69661 | 13.74876 | 35000 ft | 508 kts | 54° |
| 2026-05-07 17:20 | 45.73705 | 13.83165 | 34992 ft | 508 kts | 54° |
| 2026-05-07 17:20 | 45.77744 | 13.91470 | 34986 ft | 508 kts | 54° |
| 2026-05-07 17:21 | 45.81745 | 13.99720 | 34997 ft | 508 kts | 54° |
| 2026-05-07 17:21 | 45.85767 | 14.08037 | 34984 ft | 507 kts | 54° |
| 2026-05-07 17:22 | 45.89780 | 14.16358 | 34984 ft | 507 kts | 54° |
| 2026-05-07 17:22 | 45.93785 | 14.24692 | 34972 ft | 507 kts | 54° |
| 2026-05-07 17:23 | 45.97784 | 14.33033 | 34975 ft | 507 kts | 54° |
| 2026-05-07 17:23 | 46.01780 | 14.41395 | 34967 ft | 507 kts | 54° |
| 2026-05-07 17:24 | 46.05764 | 14.49757 | 34967 ft | 507 kts | 54° |
| 2026-05-07 17:24 | 46.09743 | 14.58134 | 34965 ft | 507 kts | 54° |
| 2026-05-07 17:25 | 46.13719 | 14.66528 | 34964 ft | 507 kts | 54° |
| 2026-05-07 17:25 | 46.17680 | 14.74917 | 34958 ft | 506 kts | 54° |
| 2026-05-07 17:26 | 46.21640 | 14.83327 | 34952 ft | 506 kts | 54° |
| 2026-05-07 17:26 | 46.25586 | 14.91734 | 34951 ft | 506 kts | 55° |
| 2026-05-07 17:27 | 46.29526 | 15.00151 | 34943 ft | 505 kts | 55° |
| 2026-05-07 17:27 | 46.33455 | 15.08574 | 34934 ft | 505 kts | 55° |
| 2026-05-07 17:28 | 46.37346 | 15.16938 | 34935 ft | 504 kts | 55° |
| 2026-05-07 17:28 | 46.41257 | 15.25371 | 34930 ft | 504 kts | 55° |
| 2026-05-07 17:29 | 46.45157 | 15.33802 | 34935 ft | 504 kts | 55° |
| 2026-05-07 17:29 | 46.49062 | 15.42265 | 34935 ft | 504 kts | 55° |
| 2026-05-07 17:30 | 46.53162 | 15.50495 | 34927 ft | 502 kts | 42° |
| 2026-05-07 17:30 | 46.55883 | 15.53605 | 34948 ft | 496 kts | 27° |
| 2026-05-07 17:30 | 46.58921 | 15.55953 | 34937 ft | 495 kts | 25° |
| 2026-05-07 17:31 | 46.65008 | 15.60693 | 34936 ft | 496 kts | 25° |
| 2026-05-07 17:31 | 46.71068 | 15.65518 | 34932 ft | 498 kts | 31° |
| 2026-05-07 17:32 | 46.76781 | 15.71291 | 34938 ft | 500 kts | 33° |
| 2026-05-07 17:32 | 46.82468 | 15.77126 | 34964 ft | 500 kts | 33° |
| 2026-05-07 17:33 | 46.88159 | 15.82985 | 34968 ft | 501 kts | 33° |
| 2026-05-07 17:33 | 46.93852 | 15.88863 | 34961 ft | 501 kts | 33° |
| 2026-05-07 17:34 | 46.99549 | 15.94760 | 34955 ft | 502 kts | 33° |
| 2026-05-07 17:34 | 47.05257 | 16.00684 | 34945 ft | 503 kts | 33° |
| 2026-05-07 17:35 | 47.10963 | 16.06623 | 34962 ft | 504 kts | 33° |
| 2026-05-07 17:35 | 47.16679 | 16.12588 | 34970 ft | 504 kts | 33° |
| 2026-05-07 17:36 | 47.22358 | 16.18529 | 34979 ft | 505 kts | 33° |
| 2026-05-07 17:36 | 47.28089 | 16.24543 | 34979 ft | 506 kts | 33° |
| 2026-05-07 17:37 | 47.33811 | 16.30562 | 34988 ft | 506 kts | 33° |
| 2026-05-07 17:37 | 47.39551 | 16.36617 | 34984 ft | 507 kts | 34° |
| 2026-05-07 17:38 | 47.45281 | 16.42679 | 34991 ft | 507 kts | 34° |
| 2026-05-07 17:38 | 47.51015 | 16.48760 | 34994 ft | 507 kts | 34° |
| 2026-05-07 17:39 | 47.56741 | 16.54850 | 34991 ft | 507 kts | 34° |
| 2026-05-07 17:39 | 47.62471 | 16.60962 | 34992 ft | 507 kts | 34° |
| 2026-05-07 17:40 | 47.68190 | 16.67079 | 34990 ft | 507 kts | 34° |
| 2026-05-07 17:40 | 47.73904 | 16.73206 | 34989 ft | 507 kts | 34° |
| 2026-05-07 17:41 | 47.79618 | 16.79351 | 34990 ft | 506 kts | 34° |
| 2026-05-07 17:41 | 47.85318 | 16.85497 | 35039 ft | 508 kts | 35° |
| 2026-05-07 17:42 | 47.91054 | 16.91700 | 34989 ft | 510 kts | 35° |
| 2026-05-07 17:42 | 47.96787 | 16.97915 | 34978 ft | 510 kts | 35° |
| 2026-05-07 17:43 | 48.02518 | 17.04144 | 34972 ft | 509 kts | 35° |
| 2026-05-07 17:43 | 48.07928 | 17.10899 | 34964 ft | 507 kts | 51° |
| 2026-05-07 17:44 | 48.12511 | 17.18939 | 34969 ft | 508 kts | 50° |
| 2026-05-07 17:44 | 48.17083 | 17.26995 | 34965 ft | 507 kts | 51° |
| 2026-05-07 17:45 | 48.21635 | 17.35065 | 34965 ft | 507 kts | 51° |
| 2026-05-07 17:45 | 48.26177 | 17.43145 | 34965 ft | 506 kts | 51° |
| 2026-05-07 17:46 | 48.30708 | 17.51229 | 34965 ft | 505 kts | 51° |
| 2026-05-07 17:46 | 48.35227 | 17.59315 | 34964 ft | 505 kts | 51° |
| 2026-05-07 17:47 | 48.39738 | 17.67413 | 34964 ft | 504 kts | 52° |
| 2026-05-07 17:47 | 48.44238 | 17.75514 | 34965 ft | 504 kts | 52° |
| 2026-05-07 17:48 | 48.48726 | 17.83619 | 34965 ft | 504 kts | 52° |
| 2026-05-07 17:48 | 48.53207 | 17.91737 | 34963 ft | 504 kts | 52° |
| 2026-05-07 17:49 | 48.57687 | 17.99876 | 34965 ft | 504 kts | 52° |
| 2026-05-07 17:49 | 48.62127 | 18.07966 | 34965 ft | 504 kts | 52° |
| 2026-05-07 17:50 | 48.66594 | 18.16132 | 34966 ft | 504 kts | 53° |
| 2026-05-07 17:50 | 48.71057 | 18.24315 | 34970 ft | 505 kts | 53° |
| 2026-05-07 17:51 | 48.75523 | 18.32530 | 34973 ft | 505 kts | 53° |
| 2026-05-07 17:51 | 48.79990 | 18.40772 | 34977 ft | 506 kts | 53° |
| 2026-05-07 17:52 | 48.84461 | 18.49047 | 34975 ft | 507 kts | 53° |
| 2026-05-07 17:52 | 48.88930 | 18.57343 | 34979 ft | 507 kts | 53° |
| 2026-05-07 17:53 | 48.93395 | 18.65657 | 34977 ft | 508 kts | 53° |
| 2026-05-07 17:53 | 48.97866 | 18.74009 | 34982 ft | 509 kts | 53° |
| 2026-05-07 17:54 | 49.02326 | 18.82368 | 34980 ft | 509 kts | 53° |
| 2026-05-07 17:54 | 49.06791 | 18.90762 | 34978 ft | 509 kts | 53° |
| 2026-05-07 17:55 | 49.11249 | 18.99169 | 34983 ft | 510 kts | 53° |
| 2026-05-07 17:55 | 49.15697 | 19.07584 | 34988 ft | 509 kts | 53° |
| 2026-05-07 17:56 | 49.20129 | 19.15996 | 34993 ft | 508 kts | 53° |
| 2026-05-07 17:56 | 49.24554 | 19.24419 | 35000 ft | 508 kts | 53° |
| 2026-05-07 17:57 | 49.28224 | 19.31428 | 34994 ft | 507 kts | 53° |
| 2026-05-07 17:57 | 49.33347 | 19.41239 | 34994 ft | 507 kts | 53° |
| 2026-05-07 17:58 | 49.37746 | 19.49686 | 34992 ft | 506 kts | 53° |
| 2026-05-07 17:58 | 49.42130 | 19.58134 | 34992 ft | 506 kts | 53° |
| 2026-05-07 17:59 | 49.46654 | 19.66398 | 34984 ft | 506 kts | 43° |
| 2026-05-07 17:59 | 49.51909 | 19.73575 | 34995 ft | 504 kts | 44° |
| 2026-05-07 18:00 | 49.57078 | 19.80916 | 34974 ft | 505 kts | 43° |
| 2026-05-07 18:00 | 49.62229 | 19.88191 | 34983 ft | 496 kts | 44° |
| 2026-05-07 18:01 | 49.67179 | 19.95193 | 34988 ft | 492 kts | 44° |
| 2026-05-07 18:01 | 49.72222 | 20.02352 | 34980 ft | 492 kts | 44° |
| 2026-05-07 18:02 | 49.78925 | 20.11898 | 34981 ft | 492 kts | 44° |
| 2026-05-07 18:03 | 49.84799 | 20.20294 | 34975 ft | 492 kts | 44° |
| 2026-05-07 18:03 | 49.89827 | 20.27505 | 34977 ft | 491 kts | 44° |
| 2026-05-07 18:04 | 49.94838 | 20.34711 | 34984 ft | 492 kts | 44° |
| 2026-05-07 18:04 | 49.99824 | 20.41902 | 35112 ft | 490 kts | 44° |
| 2026-05-07 18:04 | 50.01472 | 20.44286 | 34897 ft | 488 kts | 44° |
| 2026-05-07 18:05 | 50.04087 | 20.47568 | 34994 ft | 479 kts | 31° |
| 2026-05-07 18:05 | 50.07113 | 20.49525 | 34967 ft | 467 kts | 10° |
| 2026-05-07 18:05 | 50.11350 | 20.50601 | 34963 ft | 467 kts | 9° |
| 2026-05-07 18:06 | 50.17729 | 20.52639 | 34968 ft | 468 kts | 10° |
| 2026-05-07 18:06 | 50.23074 | 20.54388 | 34968 ft | 468 kts | 10° |
| 2026-05-07 18:07 | 50.29455 | 20.56487 | 34974 ft | 469 kts | 10° |
| 2026-05-07 18:07 | 50.35837 | 20.58592 | 34973 ft | 469 kts | 10° |
| 2026-05-07 18:08 | 50.42217 | 20.60702 | 34969 ft | 469 kts | 10° |
| 2026-05-07 18:08 | 50.48608 | 20.62823 | 34969 ft | 469 kts | 10° |
| 2026-05-07 18:09 | 50.54998 | 20.64947 | 34968 ft | 470 kts | 10° |
| 2026-05-07 18:09 | 50.61394 | 20.67081 | 34968 ft | 470 kts | 10° |
| 2026-05-07 18:09 | 50.64602 | 20.68153 | 34705 ft | 471 kts | 10° |
| 2026-05-07 18:10 | 50.67775 | 20.69219 | 33995 ft | 475 kts | 10° |
| 2026-05-07 18:10 | 50.71010 | 20.70306 | 33336 ft | 475 kts | 10° |
| 2026-05-07 18:10 | 50.74232 | 20.71388 | 32737 ft | 473 kts | 11° |
| 2026-05-07 18:10 | 50.77451 | 20.72471 | 32154 ft | 472 kts | 11° |
| 2026-05-07 18:11 | 50.80656 | 20.73551 | 31590 ft | 470 kts | 11° |
| 2026-05-07 18:11 | 50.83862 | 20.74634 | 31015 ft | 472 kts | 11° |
| 2026-05-07 18:11 | 50.87082 | 20.75722 | 30465 ft | 473 kts | 11° |
| 2026-05-07 18:11 | 50.90301 | 20.76811 | 29903 ft | 474 kts | 11° |
| 2026-05-07 18:12 | 50.93532 | 20.77905 | 29265 ft | 475 kts | 11° |
| 2026-05-07 18:12 | 50.96763 | 20.79002 | 28646 ft | 476 kts | 11° |
| 2026-05-07 18:12 | 50.99999 | 20.80101 | 28038 ft | 476 kts | 11° |
| 2026-05-07 18:12 | 51.03244 | 20.81206 | 27448 ft | 477 kts | 11° |
| 2026-05-07 18:13 | 51.06502 | 20.82316 | 26991 ft | 479 kts | 11° |
| 2026-05-07 18:13 | 51.09761 | 20.83428 | 26951 ft | 481 kts | 11° |
| 2026-05-07 18:13 | 51.13037 | 20.84546 | 26963 ft | 482 kts | 11° |
| 2026-05-07 18:13 | 51.16314 | 20.85666 | 26969 ft | 482 kts | 11° |
| 2026-05-07 18:14 | 51.19590 | 20.86786 | 26965 ft | 482 kts | 11° |
| 2026-05-07 18:14 | 51.22868 | 20.87910 | 26943 ft | 482 kts | 11° |
| 2026-05-07 18:14 | 51.26146 | 20.89034 | 26961 ft | 482 kts | 11° |
| 2026-05-07 18:14 | 51.29429 | 20.90163 | 26763 ft | 482 kts | 11° |
| 2026-05-07 18:15 | 51.32702 | 20.91290 | 26144 ft | 480 kts | 11° |
| 2026-05-07 18:15 | 51.35965 | 20.92415 | 25546 ft | 481 kts | 11° |
| 2026-05-07 18:15 | 51.39233 | 20.93544 | 24962 ft | 479 kts | 11° |
| 2026-05-07 18:15 | 51.42481 | 20.94667 | 24392 ft | 476 kts | 11° |
| 2026-05-07 18:16 | 51.45700 | 20.95781 | 23828 ft | 472 kts | 11° |
| 2026-05-07 18:16 | 51.48902 | 20.96891 | 23211 ft | 468 kts | 11° |
| 2026-05-07 18:16 | 51.52087 | 20.97999 | 22170 ft | 471 kts | 11° |
| 2026-05-07 18:16 | 51.55315 | 20.99125 | 21056 ft | 479 kts | 11° |
| 2026-05-07 18:17 | 51.58559 | 21.00255 | 20369 ft | 474 kts | 11° |
| 2026-05-07 18:17 | 51.61769 | 21.01374 | 19640 ft | 467 kts | 11° |
| 2026-05-07 18:17 | 51.64878 | 21.02457 | 18870 ft | 451 kts | 11° |
| 2026-05-07 18:17 | 51.67864 | 21.03500 | 18011 ft | 439 kts | 12° |
| 2026-05-07 18:18 | 51.70819 | 21.04532 | 16999 ft | 429 kts | 11° |
| 2026-05-07 18:18 | 51.73719 | 21.05548 | 15879 ft | 423 kts | 11° |
| 2026-05-07 18:18 | 51.76591 | 21.06556 | 14828 ft | 418 kts | 11° |
| 2026-05-07 18:18 | 51.79403 | 21.07544 | 13717 ft | 413 kts | 11° |
| 2026-05-07 18:19 | 51.82206 | 21.08532 | 12484 ft | 409 kts | 11° |
| 2026-05-07 18:19 | 51.84960 | 21.09503 | 11330 ft | 403 kts | 11° |
| 2026-05-07 18:19 | 51.87671 | 21.10459 | 10288 ft | 396 kts | 11° |
| 2026-05-07 18:19 | 51.90318 | 21.11396 | 9505 ft | 381 kts | 11° |
| 2026-05-07 18:20 | 51.92778 | 21.12751 | 8977 ft | 368 kts | 24° |
| 2026-05-07 18:20 | 51.94972 | 21.14827 | 8530 ft | 363 kts | 35° |
| 2026-05-07 18:20 | 51.96838 | 21.17533 | 8074 ft | 359 kts | 47° |
| 2026-05-07 18:20 | 51.98306 | 21.20757 | 7663 ft | 353 kts | 59° |
| 2026-05-07 18:21 | 51.99274 | 21.24357 | 7272 ft | 346 kts | 77° |
| 2026-05-07 18:21 | 51.99558 | 21.28189 | 6910 ft | 339 kts | 86° |
| 2026-05-07 18:21 | 51.99635 | 21.31970 | 6523 ft | 332 kts | 97° |
| 2026-05-07 18:21 | 51.98891 | 21.35432 | 6114 ft | 324 kts | 125° |
| 2026-05-07 18:22 | 51.97315 | 21.37941 | 5734 ft | 315 kts | 146° |
| 2026-05-07 18:22 | 51.96113 | 21.39316 | 5475 ft | 311 kts | 147° |
| 2026-05-07 18:22 | 51.93821 | 21.41883 | 5314 ft | 293 kts | 147° |
| 2026-05-07 18:22 | 51.92036 | 21.43196 | 5197 ft | 276 kts | 174° |
| 2026-05-07 18:23 | 51.90223 | 21.42809 | 5071 ft | 258 kts | 208° |
| 2026-05-07 18:23 | 51.88951 | 21.40927 | 4949 ft | 248 kts | 240° |
| 2026-05-07 18:23 | 51.88192 | 21.38409 | 4843 ft | 251 kts | 247° |
| 2026-05-07 18:23 | 51.87484 | 21.35835 | 4668 ft | 250 kts | 247° |
| 2026-05-07 18:24 | 51.86780 | 21.33266 | 4510 ft | 249 kts | 247° |
| 2026-05-07 18:24 | 51.86388 | 21.30570 | 4336 ft | 248 kts | 272° |
| 2026-05-07 18:24 | 51.86847 | 21.27951 | 4159 ft | 241 kts | 301° |
| 2026-05-07 18:24 | 51.87905 | 21.25902 | 4004 ft | 233 kts | 313° |
| 2026-05-07 18:25 | 51.89040 | 21.24096 | 3856 ft | 225 kts | 316° |
| 2026-05-07 18:25 | 51.90173 | 21.22421 | 3697 ft | 217 kts | 317° |
| 2026-05-07 18:25 | 51.91269 | 21.20814 | 3582 ft | 207 kts | 316° |
| 2026-05-07 18:25 | 51.92330 | 21.19261 | 3433 ft | 205 kts | 317° |
| 2026-05-07 18:26 | 51.93383 | 21.17702 | 3272 ft | 205 kts | 316° |
| 2026-05-07 18:26 | 51.94484 | 21.16241 | 3113 ft | 205 kts | 324° |
| 2026-05-07 18:26 | 51.95677 | 21.14990 | 2995 ft | 204 kts | 328° |
| 2026-05-07 18:26 | 51.96907 | 21.13852 | 2992 ft | 204 kts | 330° |
| 2026-05-07 18:27 | 51.98156 | 21.12755 | 3011 ft | 204 kts | 331° |
| 2026-05-07 18:27 | 51.99405 | 21.11674 | 3019 ft | 203 kts | 331° |
| 2026-05-07 18:27 | 52.00603 | 21.10634 | 3040 ft | 189 kts | 331° |
| 2026-05-07 18:27 | 52.01759 | 21.09630 | 3012 ft | 188 kts | 331° |
| 2026-05-07 18:28 | 52.02895 | 21.08642 | 3013 ft | 188 kts | 330° |
| 2026-05-07 18:28 | 52.04049 | 21.07641 | 2885 ft | 189 kts | 331° |
| 2026-05-07 18:28 | 52.05203 | 21.06635 | 2644 ft | 188 kts | 332° |
| 2026-05-07 18:28 | 52.06337 | 21.05648 | 2424 ft | 180 kts | 333° |
| 2026-05-07 18:29 | 52.07373 | 21.04744 | 2202 ft | 158 kts | 333° |
| 2026-05-07 18:29 | 52.08286 | 21.03948 | 2023 ft | 146 kts | 333° |
| 2026-05-07 18:29 | 52.09183 | 21.03166 | 1820 ft | 146 kts | 333° |
| 2026-05-07 18:29 | 52.10077 | 21.02387 | 1621 ft | 145 kts | 333° |
| 2026-05-07 18:30 | 52.10965 | 21.01614 | 1415 ft | 145 kts | 333° |
| 2026-05-07 18:30 | 52.11852 | 21.00838 | 1215 ft | 145 kts | 333° |
| 2026-05-07 18:30 | 52.12748 | 21.00061 | 1019 ft | 150 kts | 333° |
| 2026-05-07 18:30 | 52.13642 | 20.99285 | 763 ft | 143 kts | 332° |
| 2026-05-07 18:31 | 52.14524 | 20.98511 | 569 ft | 148 kts | 332° |
| 2026-05-07 18:31 | 52.15438 | 20.97713 | 395 ft | 145 kts | 332° |
| 2026-05-07 18:31 | 52.16245 | 20.97002 | 335 ft | 110 kts | 332° |
| 2026-05-07 18:31 | 52.16715 | 20.96590 | 345 ft | 51 kts | 332° |
| 2026-05-07 18:32 | 52.16897 | 20.96432 | 340 ft | 21 kts | 332° |
| 2026-05-07 18:32 | 52.17077 | 20.96287 | 338 ft | 27 kts | 343° |
| 2026-05-07 18:32 | 52.17255 | 20.96246 | 337 ft | 26 kts | 0° |
| 2026-05-07 18:32 | 52.17366 | 20.96261 | 338 ft | 4 kts | 20° |
| 2026-05-07 18:33 | 52.17376 | 20.96270 | 337 ft | 0 kts | 37° |
| 2026-05-07 18:34 | 52.17376 | 20.96271 | 337 ft | 1 kts | 37° |
| 2026-05-07 18:34 | 52.17394 | 20.96298 | 338 ft | 7 kts | 48° |
| 2026-05-07 18:35 | 52.17430 | 20.96397 | 337 ft | 12 kts | 62° |
| 2026-05-07 18:35 | 52.17469 | 20.96524 | 335 ft | 11 kts | 77° |
| 2026-05-07 18:35 | 52.17422 | 20.96611 | 335 ft | 13 kts | 153° |
| 2026-05-07 18:35 | 52.17334 | 20.96687 | 337 ft | 15 kts | 151° |
| 2026-05-07 18:36 | 52.17235 | 20.96775 | 337 ft | 16 kts | 151° |
| 2026-05-07 18:36 | 52.17167 | 20.96836 | 337 ft | 12 kts | 151° |
| 2026-05-07 18:36 | 52.17087 | 20.96906 | 337 ft | 14 kts | 152° |
| 2026-05-07 18:36 | 52.17003 | 20.96978 | 336 ft | 15 kts | 152° |
| 2026-05-07 18:37 | 52.16910 | 20.97059 | 336 ft | 14 kts | 152° |
| 2026-05-07 18:37 | 52.16840 | 20.97119 | 338 ft | 8 kts | 150° |
| 2026-05-07 18:37 | 52.16831 | 20.97169 | 335 ft | 5 kts | 84° |
| 2026-05-07 18:37 | 52.16839 | 20.97224 | 336 ft | 5 kts | 75° |
| 2026-05-07 18:38 | 52.16845 | 20.97268 | 339 ft | 3 kts | 77° |
| 2026-05-07 18:38 | 52.16848 | 20.97284 | 339 ft | 0 kts | 76° |
| 2026-05-07 18:38 | 52.16848 | 20.97285 | 336 ft | 0 kts | 76° |
| 2026-05-07 18:39 | 52.16848 | 20.97288 | 336 ft | 1 kts | 76° |
| 2026-05-07 18:39 | 52.16849 | 20.97291 | 336 ft | 0 kts | 76° |